Time;durP1;ratioP1;P1;durP2;ratioP2;P2;SDS_P1;SDS_P2;PMS_P1;PMS_P2;Temp;Humidity;BMP_temperature;BMP_pressure;BME280_temperature;BME280_humidity;BME280_pressure;Samples;Min_cycle;Max_cycle;Signal;HPM_P1;HPM_P2
2023/06/14 00:01:48;;;;;;;;;;;;;;;12.25;84.67;98967.44;4291565;33;35503;-91
2023/06/14 00:04:16;;;;;;;;;;;;;;;11.50;88.09;98966.44;4291922;33;33522;-90
2023/06/14 00:06:45;;;;;;;;;;;;;;;10.99;92.06;98970.00;4304413;33;34914;-91
2023/06/14 00:09:13;;;;;;;;;;;;;;;11.52;89.73;98962.91;4304413;33;35980;-91
2023/06/14 00:11:41;;;;;;;;;;;;;;;11.83;86.12;98967.47;4279714;33;35466;-92
2023/06/14 00:14:08;;;;;;;;;;;;;;;11.83;87.55;98970.06;4304450;33;33074;-92
2023/06/14 00:16:38;;;;;;;;;;;;;;;12.11;85.28;98966.91;4293640;33;34072;-91
2023/06/14 00:19:06;;;;;;;;;;;;;;;12.02;85.15;98967.06;4296428;33;34636;-91
2023/06/14 00:21:34;;;;;;;;;;;;;;;11.35;89.48;98965.84;4296083;33;34786;-91
2023/06/14 00:24:02;;;;;;;;;;;;;;;11.44;90.81;98971.78;4296411;33;34453;-91
2023/06/14 00:26:30;;;;;;;;;;;;;;;11.63;89.96;98972.25;4296031;33;34932;-92
2023/06/14 00:28:58;;;;;;;;;;;;;;;11.86;89.18;98975.25;4295887;33;35246;-91
2023/06/14 00:31:26;;;;;;;;;;;;;;;12.03;88.04;98974.03;4296016;33;34771;-92
2023/06/14 00:33:54;;;;;;;;;;;;;;;11.93;87.69;98966.41;4295913;33;33599;-92
2023/06/14 00:36:22;;;;;;;;;;;;;;;11.30;92.34;98974.66;4295820;33;35231;-91
2023/06/14 00:38:49;;;;;;;;;;;;;;;11.80;91.12;98975.34;4295369;33;35978;-92
2023/06/14 00:41:17;;;;;;;;;;;;;;;11.69;91.50;98972.13;4295783;33;35381;-92
2023/06/14 00:43:45;;;;;;;;;;;;;;;11.90;91.21;98982.13;4295701;33;34220;-90
2023/06/14 00:46:14;;;;;;;;;;;;;;;12.01;91.56;98974.06;4309069;33;34887;-91
2023/06/14 00:48:43;;;;;;;;;;;;;;;11.98;90.91;98979.34;4295808;33;36091;-91
2023/06/14 00:51:10;;;;;;;;;;;;;;;12.10;90.92;98983.44;4295657;33;34523;-91
2023/06/14 00:53:39;;;;;;;;;;;;;;;11.99;90.99;98980.22;4307661;33;33276;-91
2023/06/14 00:56:07;;;;;;;;;;;;;;;11.83;91.81;98983.12;4295785;33;34058;-91
2023/06/14 00:58:35;;;;;;;;;;;;;;;11.77;92.69;98978.06;4308445;33;35009;-92
2023/06/14 01:01:04;;;;;;;;;;;;;;;11.92;92.63;98980.34;4308668;33;34423;-92
2023/06/14 01:03:33;;;;;;;;;;;;;;;11.84;93.54;98978.75;4308580;33;32789;-92
2023/06/14 01:06:11;;;;;;;;;;;;;;;12.12;91.54;98976.41;4308364;33;34237;-90
2023/06/14 01:08:39;;;;;;;;;;;;;;;12.17;91.54;98974.56;4295495;33;35308;-92
2023/06/14 01:11:16;;;;;;;;;;;;;;;12.04;91.92;98967.94;4308493;33;35470;-92
2023/06/14 01:13:46;;;;;;;;;;;;;;;12.02;92.44;98965.34;4283906;33;33149;-90
2023/06/14 01:16:14;;;;;;;;;;;;;;;11.94;93.44;98973.31;4308205;33;33844;-91
2023/06/14 01:18:42;;;;;;;;;;;;;;;12.27;91.67;98973.47;4295112;33;33910;-92
2023/06/14 01:21:23;;;;;;;;;;;;;;;12.29;92.95;98976.88;4283243;33;34763;-91
2023/06/14 01:23:52;;;;;;;;;;;;;;;12.46;90.71;98976.50;4283527;33;34357;-91
2023/06/14 01:26:21;;;;;;;;;;;;;;;12.48;91.70;98968.62;4295549;33;34354;-92
2023/06/14 01:28:52;;;;;;;;;;;;;;;12.89;90.06;98964.09;4292469;33;34334;-91
2023/06/14 01:31:22;;;;;;;;;;;;;;;12.45;90.63;98959.09;4281310;33;34661;-92
2023/06/14 01:33:51;;;;;;;;;;;;;;;12.42;91.74;98968.75;4280334;33;32699;-92
2023/06/14 01:36:19;;;;;;;;;;;;;;;12.86;90.38;98969.41;4292651;33;33790;-92
2023/06/14 01:38:49;;;;;;;;;;;;;;;12.60;91.11;98970.94;4292478;33;35464;-90
2023/06/14 01:41:18;;;;;;;;;;;;;;;12.44;92.38;98977.41;4292795;33;34433;-91
2023/06/14 01:43:45;;;;;;;;;;;;;;;12.59;92.60;98979.66;4304444;33;33618;-93
2023/06/14 01:46:13;;;;;;;;;;;;;;;12.71;92.42;98974.13;4280771;33;34910;-91
2023/06/14 01:48:41;;;;;;;;;;;;;;;12.59;93.16;98977.06;4305390;33;36051;-91
2023/06/14 01:51:09;;;;;;;;;;;;;;;12.58;93.01;98971.84;4305564;33;34752;-90
2023/06/14 01:53:37;;;;;;;;;;;;;;;12.46;93.96;98976.50;4305469;33;33531;-91
2023/06/14 01:56:05;;;;;;;;;;;;;;;12.97;90.70;98972.59;4305466;33;33863;-91
2023/06/14 01:58:32;;;;;;;;;;;;;;;12.62;92.84;98982.22;4305360;33;35147;-91
2023/06/14 02:01:02;;;;;;;;;;;;;;;12.86;91.38;98985.94;4305675;33;34751;-91
2023/06/14 02:03:30;;;;;;;;;;;;;;;12.88;90.82;98980.66;4305343;33;33442;-92
2023/06/14 02:05:58;;;;;;;;;;;;;;;12.90;91.16;98986.75;4292399;33;34911;-91
2023/06/14 02:08:25;;;;;;;;;;;;;;;13.06;90.66;98981.97;4292390;33;34676;-91
2023/06/14 02:10:54;;;;;;;;;;;;;;;12.96;91.34;98990.94;4292440;33;35425;-93
2023/06/14 02:13:21;;;;;;;;;;;;;;;13.01;90.71;98995.16;4305315;33;33378;-91
2023/06/14 02:15:53;;;;;;;;;;;;;;;12.99;91.51;98991.72;4304302;33;34132;-91
2023/06/14 02:18:21;;;;;;;;;;;;;;;12.90;92.05;98986.75;4305189;33;35212;-92
2023/06/14 02:20:50;;;;;;;;;;;;;;;13.11;91.04;98993.13;4305328;33;34469;-91
2023/06/14 02:23:17;;;;;;;;;;;;;;;13.04;91.78;98988.97;4292430;33;33201;-92
2023/06/14 02:25:45;;;;;;;;;;;;;;;12.94;91.99;98988.37;4292233;33;33873;-91
2023/06/14 02:28:14;;;;;;;;;;;;;;;12.70;92.59;98985.47;4292463;33;35472;-91
2023/06/14 02:30:42;;;;;;;;;;;;;;;12.52;93.73;98985.94;4292275;33;35140;-90
2023/06/14 02:33:12;;;;;;;;;;;;;;;12.42;95.02;98990.50;4292108;33;33191;-91
2023/06/14 02:35:40;;;;;;;;;;;;;;;12.36;95.52;98985.44;4292960;33;34180;-91
2023/06/14 02:38:09;;;;;;;;;;;;;;;12.39;96.02;98993.22;4292203;33;35261;-91
2023/06/14 02:40:36;;;;;;;;;;;;;;;12.47;93.78;98993.00;4291816;33;34185;-91
2023/06/14 02:43:04;;;;;;;;;;;;;;;12.21;94.33;98986.66;4292214;33;33921;-91
2023/06/14 02:45:32;;;;;;;;;;;;;;;12.35;92.46;98999.38;4292263;33;34910;-90
2023/06/14 02:48:00;;;;;;;;;;;;;;;12.24;91.30;99001.38;4292254;33;35725;-91
2023/06/14 02:50:29;;;;;;;;;;;;;;;12.02;93.65;98993.16;4305102;33;34759;-91
2023/06/14 02:52:58;;;;;;;;;;;;;;;11.97;94.48;98995.06;4305086;33;33120;-91
2023/06/14 02:55:26;;;;;;;;;;;;;;;12.19;94.38;98993.66;4280522;33;33914;-91
2023/06/14 02:57:54;;;;;;;;;;;;;;;12.41;92.34;98985.34;4292071;33;35777;-91
2023/06/14 03:00:23;;;;;;;;;;;;;;;12.09;95.03;98992.16;4291861;33;34436;-91
2023/06/14 03:02:51;;;;;;;;;;;;;;;12.31;95.06;99001.19;4303897;33;34062;-91
2023/06/14 03:05:21;;;;;;;;;;;;;;;12.58;93.66;98995.37;4305103;33;34542;-90
2023/06/14 03:07:50;;;;;;;;;;;;;;;12.52;94.96;98991.16;4292209;33;34878;-91
2023/06/14 03:10:18;;;;;;;;;;;;;;;12.62;96.49;98987.44;4292162;33;35499;-91
2023/06/14 03:12:47;;;;;;;;;;;;;;;12.68;96.78;98984.66;4291833;33;32119;-91
2023/06/14 03:15:17;;;;;;;;;;;;;;;12.73;96.56;98984.53;4305216;33;34329;-91
2023/06/14 03:17:45;;;;;;;;;;;;;;;12.82;96.27;98986.06;4305235;33;36088;-92
2023/06/14 03:20:15;;;;;;;;;;;;;;;13.02;95.13;98989.03;4292286;33;35107;-92
2023/06/14 03:22:45;;;;;;;;;;;;;;;13.03;95.80;98988.13;4292311;33;34212;-91
2023/06/14 03:25:15;;;;;;;;;;;;;;;13.65;94.11;98987.31;4305304;33;33487;-91
2023/06/14 03:27:43;;;;;;;;;;;;;;;13.87;91.55;98991.94;4292348;33;35182;-92
2023/06/14 03:30:11;;;;;;;;;;;;;;;14.01;89.60;98992.38;4305078;33;35355;-91
2023/06/14 03:32:40;;;;;;;;;;;;;;;13.79;92.19;98999.97;4304910;33;33839;-91
2023/06/14 03:35:10;;;;;;;;;;;;;;;13.97;90.60;99000.34;4304857;33;33606;-91
2023/06/14 03:37:38;;;;;;;;;;;;;;;14.04;90.11;98999.25;4292288;33;35249;-92
2023/06/14 03:40:06;;;;;;;;;;;;;;;14.19;89.42;98998.78;4291815;33;35397;-91
2023/06/14 03:42:35;;;;;;;;;;;;;;;14.03;90.49;98997.56;4305110;33;33565;-92
2023/06/14 03:45:03;;;;;;;;;;;;;;;14.46;87.64;98998.81;4291765;33;33918;-92
2023/06/14 03:47:31;;;;;;;;;;;;;;;14.31;89.06;99001.91;4291629;33;35674;-91
2023/06/14 03:50:00;;;;;;;;;;;;;;;14.31;90.04;99004.53;4291689;33;34405;-91
2023/06/14 03:52:28;;;;;;;;;;;;;;;14.62;87.98;99009.69;4291384;33;33526;-92
2023/06/14 03:54:56;;;;;;;;;;;;;;;14.68;87.90;99009.50;4291813;33;34208;-91
2023/06/14 03:57:44;;;;;;;;;;;;;;;14.70;87.37;99006.81;4293763;33;36056;-91
2023/06/14 04:00:13;;;;;;;;;;;;;;;14.71;87.47;99005.91;4291827;33;34467;-92
2023/06/14 04:02:40;;;;;;;;;;;;;;;14.88;86.98;99014.09;4303392;33;32907;-92
2023/06/14 04:05:09;;;;;;;;;;;;;;;14.89;86.65;99012.31;4303470;33;33845;-92
2023/06/14 04:07:39;;;;;;;;;;;;;;;14.94;86.94;99013.00;4291827;33;34996;-91
2023/06/14 04:10:09;;;;;;;;;;;;;;;14.98;86.02;99012.88;4292311;33;34782;-92
2023/06/14 04:12:36;;;;;;;;;;;;;;;15.39;83.24;99017.59;4291601;33;34306;-93
2023/06/14 04:15:05;;;;;;;;;;;;;;;15.65;82.96;99016.66;4304628;33;33797;-92
2023/06/14 04:17:48;;;;;;;;;;;;;;;16.01;81.48;99028.50;4291195;33;34675;-92
2023/06/14 04:20:16;;;;;;;;;;;;;;;16.22;79.52;99021.56;4304210;33;35385;-92
2023/06/14 04:22:44;;;;;;;;;;;;;;;16.18;78.98;99025.19;4304269;33;33850;-91
2023/06/14 04:25:13;;;;;;;;;;;;;;;16.16;79.53;99027.03;4304300;33;33486;-93
2023/06/14 04:27:41;;;;;;;;;;;;;;;16.07;79.40;99026.47;4291185;33;35391;-91
2023/06/14 04:30:10;;;;;;;;;;;;;;;16.70;77.03;99022.28;4291226;33;34472;-92
2023/06/14 04:32:39;;;;;;;;;;;;;;;16.53;75.89;99036.09;4291610;33;34158;-93
2023/06/14 04:35:08;;;;;;;;;;;;;;;16.75;75.68;99023.81;4303076;33;34044;-92
2023/06/14 04:37:39;;;;;;;;;;;;;;;16.40;78.37;99031.31;4291412;33;34937;-92
2023/06/14 04:40:08;;;;;;;;;;;;;;;16.92;76.68;99035.41;4302930;33;34632;-91
2023/06/14 04:42:40;;;;;;;;;;;;;;;17.17;75.59;99028.22;4303280;33;34383;-92
2023/06/14 04:45:09;;;;;;;;;;;;;;;16.84;76.14;99031.34;4291670;33;34453;-92
2023/06/14 04:47:38;;;;;;;;;;;;;;;17.11;76.58;99028.47;4304250;33;34874;-91
2023/06/14 04:50:06;;;;;;;;;;;;;;;17.61;72.04;99035.94;4290960;33;34938;-92
2023/06/14 04:52:35;;;;;;;;;;;;;;;17.87;71.51;99033.94;4303860;33;34295;-91
2023/06/14 04:55:05;;;;;;;;;;;;;;;17.77;71.78;99032.59;4302985;33;33885;-91
2023/06/14 04:57:33;;;;;;;;;;;;;;;18.11;69.18;99041.66;4291168;33;35655;-92
2023/06/14 05:00:04;;;;;;;;;;;;;;;18.30;69.16;99037.22;4279322;33;35360;-92
2023/06/14 05:02:35;;;;;;;;;;;;;;;17.93;71.04;99041.56;4292370;33;33296;-91
2023/06/14 05:05:07;;;;;;;;;;;;;;;18.38;71.13;99045.59;4304749;33;33622;-92
2023/06/14 05:07:35;;;;;;;;;;;;;;;18.17;68.84;99041.34;4293440;33;34951;-92
2023/06/14 05:10:03;;;;;;;;;;;;;;;18.36;69.29;99038.72;4281083;33;34620;-92
2023/06/14 05:12:31;;;;;;;;;;;;;;;18.70;66.95;99034.44;4292969;33;33556;-92
2023/06/14 05:14:59;;;;;;;;;;;;;;;18.88;66.37;99040.63;4306030;33;34320;-91
2023/06/14 05:17:27;;;;;;;;;;;;;;;19.33;65.06;99039.22;4305857;33;35737;-92
2023/06/14 05:19:55;;;;;;;;;;;;;;;19.44;64.39;99036.88;4292567;33;34686;-93
2023/06/14 05:22:24;;;;;;;;;;;;;;;20.09;61.82;99038.78;4292631;33;33938;-92
2023/06/14 05:24:52;;;;;;;;;;;;;;;20.26;60.49;99041.34;4292802;33;34959;-92
2023/06/14 05:27:20;;;;;;;;;;;;;;;20.20;60.85;99049.59;4292704;33;35247;-92
2023/06/14 05:29:47;;;;;;;;;;;;;;;20.33;58.38;99046.28;4305438;33;35053;-91
2023/06/14 05:32:15;;;;;;;;;;;;;;;20.28;59.16;99046.53;4305701;33;33362;-91
2023/06/14 05:34:43;;;;;;;;;;;;;;;20.11;59.82;99052.75;4292652;33;34248;-91
2023/06/14 05:37:11;;;;;;;;;;;;;;;19.45;61.58;99049.16;4292809;33;36015;-92
2023/06/14 05:39:39;;;;;;;;;;;;;;;19.13;65.38;99054.31;4305498;33;34602;-92
2023/06/14 05:42:07;;;;;;;;;;;;;;;18.48;63.84;99050.47;4292629;33;33266;-92
2023/06/14 05:44:35;;;;;;;;;;;;;;;18.64;65.08;99051.44;4292517;33;34239;-92
2023/06/14 05:47:03;;;;;;;;;;;;;;;19.12;64.29;99052.59;4292480;33;34991;-92
2023/06/14 05:49:31;;;;;;;;;;;;;;;19.78;64.67;99050.97;4292496;33;34869;-92
2023/06/14 05:51:58;;;;;;;;;;;;;;;19.84;61.41;99055.94;4304303;33;33561;-93
2023/06/14 05:54:27;;;;;;;;;;;;;;;19.89;62.94;99053.91;4305511;33;34095;-92
2023/06/14 05:56:54;;;;;;;;;;;;;;;20.04;63.26;99060.16;4292450;33;34842;-92
2023/06/14 05:59:22;;;;;;;;;;;;;;;20.79;56.77;99049.00;4292254;33;34522;-93
2023/06/14 06:01:50;;;;;;;;;;;;;;;21.00;57.93;99047.75;4304342;33;34256;-91
2023/06/14 06:04:19;;;;;;;;;;;;;;;21.64;56.67;99052.84;4305448;33;33857;-93
2023/06/14 06:06:47;;;;;;;;;;;;;;;21.86;55.41;99052.34;4305245;33;34814;-92
2023/06/14 06:09:15;;;;;;;;;;;;;;;20.92;55.44;99044.69;4305395;33;34793;-91
2023/06/14 06:11:43;;;;;;;;;;;;;;;20.73;58.12;99055.50;4292454;33;33432;-92
2023/06/14 06:14:20;;;;;;;;;;;;;;;21.55;55.66;99054.25;4304826;33;34099;-92
2023/06/14 06:16:49;;;;;;;;;;;;;;;21.32;55.38;99063.56;4305436;33;35208;-91
2023/06/14 06:19:17;;;;;;;;;;;;;;;21.78;54.58;99063.44;4305250;33;35358;-93
2023/06/14 06:21:44;;;;;;;;;;;;;;;21.32;56.00;99060.91;4305293;33;34186;-92
2023/06/14 06:24:12;;;;;;;;;;;;;;;22.42;54.75;99063.03;4304080;33;34136;-91
2023/06/14 06:26:40;;;;;;;;;;;;;;;22.76;52.52;99071.44;4304000;33;35276;-94
2023/06/14 06:29:08;;;;;;;;;;;;;;;21.70;54.20;99065.69;4305136;33;34531;-91
2023/06/14 06:31:36;;;;;;;;;;;;;;;20.82;56.51;99056.75;4292388;33;33676;-91
2023/06/14 06:34:04;;;;;;;;;;;;;;;20.94;57.86;99057.84;4292286;33;34192;-92
2023/06/14 06:36:31;;;;;;;;;;;;;;;21.73;56.38;99059.38;4292280;33;35229;-92
2023/06/14 06:39:00;;;;;;;;;;;;;;;22.07;52.97;99058.13;4305106;33;35130;-92
2023/06/14 06:41:28;;;;;;;;;;;;;;;21.35;55.47;99059.84;4292176;33;34276;-92
2023/06/14 06:43:55;;;;;;;;;;;;;;;20.91;59.01;99064.19;4292169;33;34079;-93
2023/06/14 06:46:28;;;;;;;;;;;;;;;21.07;57.63;99068.56;4293076;33;35958;-92
2023/06/14 06:48:56;;;;;;;;;;;;;;;20.43;58.63;99058.03;4292018;33;34809;-92
2023/06/14 06:51:24;;;;;;;;;;;;;;;21.34;55.33;99068.75;4305163;33;33302;-92
2023/06/14 06:53:53;;;;;;;;;;;;;;;21.55;55.99;99074.59;4292092;33;34169;-93
2023/06/14 06:56:23;;;;;;;;;;;;;;;21.34;57.32;99074.91;4305145;33;36061;-93
2023/06/14 06:58:50;;;;;;;;;;;;;;;20.58;59.35;99070.41;4305047;33;34674;-92
2023/06/14 07:01:19;;;;;;;;;;;;;;;20.21;60.76;99069.81;4292046;33;33970;-91
2023/06/14 07:03:47;;;;;;;;;;;;;;;20.76;59.92;99071.19;4305065;33;35024;-92
2023/06/14 07:06:18;;;;;;;;;;;;;;;20.84;58.65;99073.41;4304751;33;35233;-92
2023/06/14 07:08:49;;;;;;;;;;;;;;;22.12;55.39;99076.41;4305068;33;34782;-92
2023/06/14 07:11:17;;;;;;;;;;;;;;;;;;4292472;33;33751;-92
2023/06/14 07:13:45;;;;;;;;;;;;;;;21.48;56.62;99073.28;4304053;33;34477;-92
2023/06/14 07:16:13;;;;;;;;;;;;;;;21.53;56.75;99076.47;4304969;33;35799;-91
2023/06/14 07:18:41;;;;;;;;;;;;;;;21.62;52.82;99078.59;4291865;33;35438;-91
2023/06/14 07:21:08;;;;;;;;;;;;;;;20.76;57.04;99083.59;4304896;33;33224;-92
2023/06/14 07:23:37;;;;;;;;;;;;;;;20.89;56.75;99071.34;4304933;33;33945;-92
2023/06/14 07:26:04;;;;;;;;;;;;;;;21.44;55.00;99071.69;4303643;33;35952;-93
2023/06/14 07:28:32;;;;;;;;;;;;;;;21.00;58.69;99076.88;4304733;33;34509;-93
2023/06/14 07:31:00;;;;;;;;;;;;;;;20.98;57.20;99076.13;4280138;33;33543;-92
2023/06/14 07:33:28;;;;;;;;;;;;;;;21.20;56.25;99069.56;4304755;33;34904;-92
2023/06/14 07:35:56;;;;;;;;;;;;;;;21.11;56.38;99075.41;4304903;33;34996;-91
2023/06/14 07:38:24;;;;;;;;;;;;;;;21.34;56.14;99082.84;4291889;33;34817;-91
2023/06/14 07:40:52;;;;;;;;;;;;;;;21.58;56.83;99088.53;4291752;33;33255;-92
2023/06/14 07:43:19;;;;;;;;;;;;;;;21.41;55.18;99088.63;4291718;33;34064;-92
2023/06/14 07:45:49;;;;;;;;;;;;;;;21.36;56.71;99082.75;4291853;33;34880;-92
2023/06/14 07:48:33;;;;;;;;;;;;;;;21.61;58.44;99090.12;4293769;33;34557;-92
2023/06/14 07:51:01;;;;;;;;;;;;;;;22.06;56.10;99090.91;4292038;33;33420;-92
2023/06/14 07:53:30;;;;;;;;;;;;;;;21.46;54.33;99085.72;4304743;33;33931;-92
2023/06/14 07:55:58;;;;;;;;;;;;;;;22.30;53.53;99098.28;4303460;33;35282;-92
2023/06/14 07:58:26;;;;;;;;;;;;;;;22.19;55.10;99098.09;4291075;33;35168;-92
2023/06/14 08:00:54;;;;;;;;;;;;;;;22.15;54.05;99100.09;4304488;33;33337;-92
2023/06/14 08:03:22;;;;;;;;;;;;;;;22.43;54.37;99101.87;4291698;33;34111;-92
2023/06/14 08:05:50;;;;;;;;;;;;;;;22.95;52.35;99099.47;4291409;33;35786;-92
2023/06/14 08:08:18;;;;;;;;;;;;;;;22.81;51.27;99095.06;4304457;33;35282;-92
2023/06/14 08:10:46;;;;;;;;;;;;;;;22.47;51.04;99095.44;4304636;33;33956;-92
2023/06/14 08:13:14;;;;;;;;;;;;;;;22.20;51.44;99091.81;4291346;33;34960;-91
2023/06/14 08:15:42;;;;;;;;;;;;;;;22.13;52.50;99102.84;4304416;33;36069;-92
2023/06/14 08:18:10;;;;;;;;;;;;;;;22.50;50.47;99099.69;4304405;33;34746;-92
2023/06/14 08:20:39;;;;;;;;;;;;;;;21.67;51.81;99095.06;4291408;33;33624;-92
2023/06/14 08:23:08;;;;;;;;;;;;;;;22.28;54.08;99092.25;4291492;33;33988;-92
2023/06/14 08:25:36;;;;;;;;;;;;;;;22.18;54.23;99093.72;4304242;33;35079;-93
2023/06/14 08:28:04;;;;;;;;;;;;;;;21.89;55.76;99099.06;4291033;33;34867;-92
2023/06/14 08:30:32;;;;;;;;;;;;;;;21.60;54.25;99101.69;4291236;33;34165;-92
2023/06/14 08:33:00;;;;;;;;;;;;;;;21.44;53.79;99103.47;4291211;33;34172;-92
2023/06/14 08:35:41;;;;;;;;;;;;;;;21.68;56.76;99112.66;4280502;33;34969;-91
2023/06/14 08:38:10;;;;;;;;;;;;;;;21.58;53.47;99111.50;4305293;33;34681;-92
2023/06/14 08:40:39;;;;;;;;;;;;;;;21.41;51.22;99109.81;4305914;33;33604;-93
2023/06/14 08:43:07;;;;;;;;;;;;;;;21.49;50.20;99117.34;4305995;33;34131;-92
2023/06/14 08:45:35;;;;;;;;;;;;;;;21.64;51.49;99124.37;4305891;33;34933;-91
2023/06/14 08:48:03;;;;;;;;;;;;;;;21.38;52.70;99126.75;4304731;33;35343;-93
2023/06/14 08:50:31;;;;;;;;;;;;;;;20.94;54.73;99130.16;4281107;33;33936;-91
2023/06/14 08:53:02;;;;;;;;;;;;;;;21.76;51.55;99136.91;4304706;33;34254;-91
2023/06/14 08:55:32;;;;;;;;;;;;;;;21.05;54.11;99140.13;4293154;33;36086;-92
2023/06/14 08:58:04;;;;;;;;;;;;;;;21.68;53.10;99141.78;4293484;33;35024;-91
2023/06/14 09:00:33;;;;;;;;;;;;;;;22.32;53.65;99144.12;4292854;33;33904;-92
2023/06/14 09:03:01;;;;;;;;;;;;;;;22.22;53.16;99145.63;4305779;33;34651;-93
2023/06/14 09:05:30;;;;;;;;;;;;;;;21.87;52.64;99148.66;4275088;33;973678;-91
2023/06/14 09:08:00;;;;;;;;;;;;;;;22.45;52.26;99147.75;4280896;33;33708;-92
2023/06/14 09:10:34;;;;;;;;;;;;;;;21.98;52.18;99148.84;4293502;33;34070;-92
2023/06/14 09:13:02;;;;;;;;;;;;;;;21.94;51.28;99144.69;4305513;33;34045;-92
2023/06/14 09:15:30;;;;;;;;;;;;;;;21.52;54.41;99146.31;4280649;33;34239;-92
2023/06/14 09:17:58;;;;;;;;;;;;;;;21.42;53.08;99139.81;4292782;33;35473;-92
2023/06/14 09:20:26;;;;;;;;;;;;;;;22.27;52.85;99146.22;4292719;33;33165;-92
2023/06/14 09:22:54;;;;;;;;;;;;;;;22.46;54.65;99141.47;4305762;33;34186;-92
2023/06/14 09:25:23;;;;;;;;;;;;;;;22.28;53.00;99142.63;4292581;33;36100;-93
2023/06/14 09:28:09;;;;;;;;;;;;;;;22.02;54.61;99147.69;4294473;33;34765;-91
2023/06/14 09:30:37;;;;;;;;;;;;;;;22.41;53.59;99132.94;4305588;33;33162;-92
2023/06/14 09:33:05;;;;;;;;;;;;;;;22.87;50.98;99143.31;4305929;33;34165;-92
2023/06/14 09:35:34;;;;;;;;;;;;;;;22.87;49.83;99140.66;4305616;33;34830;-92
2023/06/14 09:38:02;;;;;;;;;;;;;;;23.43;49.25;99137.03;4292602;33;35118;-92
2023/06/14 09:40:33;;;;;;;;;;;;;;;23.81;49.77;99137.13;4292681;33;32968;-92
2023/06/14 09:43:01;;;;;;;;;;;;;;;23.73;50.39;99141.22;4292703;33;33999;-92
2023/06/14 09:45:31;;;;;;;;;;;;;;;24.07;49.35;99130.94;4292758;33;35348;-93
2023/06/14 09:47:59;;;;;;;;;;;;;;;23.82;50.46;99127.31;4292590;33;34456;-92
2023/06/14 09:50:35;;;;;;;;;;;;;;;25.01;49.38;99133.09;4293050;33;33542;-92
2023/06/14 09:53:03;;;;;;;;;;;;;;;26.00;42.46;99125.69;4305489;33;33822;-92
2023/06/14 09:55:31;;;;;;;;;;;;;;;25.79;46.08;99133.50;4292377;33;35306;-92
2023/06/14 09:57:59;;;;;;;;;;;;;;;26.52;43.38;99126.03;4280443;33;33995;-92
2023/06/14 10:00:27;;;;;;;;;;;;;;;26.61;43.17;99118.19;4292551;33;33352;-93
2023/06/14 10:02:56;;;;;;;;;;;;;;;27.42;44.06;99126.69;4305337;33;33929;-94
2023/06/14 10:05:24;;;;;;;;;;;;;;;26.86;43.48;99132.19;4305290;33;35900;-91
2023/06/14 10:07:52;;;;;;;;;;;;;;;26.95;39.35;99126.09;4280672;33;34325;-94
2023/06/14 10:10:21;;;;;;;;;;;;;;;26.97;37.91;99129.50;4304936;33;34222;-93
2023/06/14 10:12:49;;;;;;;;;;;;;;;27.17;37.20;99124.31;4292417;33;34841;-91
2023/06/14 10:15:27;;;;;;;;;;;;;;;27.27;41.21;99127.09;4304110;33;35138;-91
2023/06/14 10:17:56;;;;;;;;;;;;;;;28.28;36.92;99113.09;4292410;33;34608;-93
2023/06/14 10:20:32;;;;;;;;;;;;;;;27.33;41.43;99119.41;4292458;33;33612;-92
2023/06/14 10:23:02;;;;;;;;;;;;;;;28.13;37.65;99120.66;4292347;33;34964;-93
2023/06/14 10:25:30;;;;;;;;;;;;;;;27.95;38.09;99116.87;4292206;33;34753;-92
2023/06/14 10:28:13;;;;;;;;;;;;;;;27.47;34.60;99114.72;4292268;33;34547;-93
2023/06/14 10:30:57;;;;;;;;;;;;;;;25.68;38.38;99115.69;4304224;33;33989;-92
2023/06/14 10:33:25;;;;;;;;;;;;;;;24.33;39.73;99116.63;4292205;33;33814;-92
2023/06/14 10:36:12;;;;;;;;;;;;;;;26.44;36.41;99114.16;4292353;33;35811;-92
2023/06/14 10:38:40;;;;;;;;;;;;;;;27.61;34.11;99112.56;4305198;33;35371;-92
2023/06/14 10:41:08;;;;;;;;;;;;;;;26.36;32.31;99113.06;4292310;33;33350;-93
2023/06/14 10:43:36;;;;;;;;;;;;;;;26.91;34.05;99102.41;4280168;33;33277;-91
2023/06/14 10:46:22;;;;;;;;;;;;;;;28.21;35.79;99109.25;4292145;33;35905;-92
2023/06/14 10:48:51;;;;;;;;;;;;;;;28.03;34.39;99098.34;4292584;33;35481;-94
2023/06/14 10:51:22;;;;;;;;;;;;;;;28.75;34.61;99099.16;4292107;33;33457;-92
2023/06/14 10:53:51;;;;;;;;;;;;;;;26.65;32.79;99092.91;4292351;33;34550;-93
2023/06/14 10:56:29;;;;;;;;;;;;;;;27.56;37.75;99097.91;4292258;33;35312;-93
2023/06/14 10:58:57;;;;;;;;;;;;;;;28.76;33.74;99092.78;4292122;33;34683;-92
2023/06/14 11:01:38;;;;;;;;;;;;;;;28.03;34.21;99086.78;4291662;33;32744;-93
2023/06/14 11:04:08;;;;;;;;;;;;;;;28.26;33.08;99084.75;4292041;33;33895;-92
2023/06/14 11:06:46;;;;;;;;;;;;;;;28.95;34.35;99083.94;4291886;33;35330;-91
2023/06/14 11:09:26;;;;;;;;;;;;;;;27.32;34.30;99082.97;4292039;33;34503;-93
2023/06/14 11:11:54;;;;;;;;;;;;;;;27.11;34.27;99090.94;4305131;33;33227;-93
2023/06/14 11:14:22;;;;;;;;;;;;;;;26.62;32.97;99095.81;4292009;33;34240;-92
2023/06/14 11:16:50;;;;;;;;;;;;;;;26.71;31.94;99094.22;4305136;33;35267;-92
2023/06/14 11:19:18;;;;;;;;;;;;;;;26.93;33.30;99093.31;4303686;33;34489;-92
2023/06/14 11:21:49;;;;;;;;;;;;;;;26.21;31.33;99091.12;4304925;33;33484;-92
2023/06/14 11:24:17;;;;;;;;;;;;;;;27.50;35.27;99087.75;4304854;33;33768;-93
2023/06/14 11:26:46;;;;;;;;;;;;;;;27.37;34.06;99090.59;4304986;33;35832;-92
2023/06/14 11:29:15;;;;;;;;;;;;;;;27.47;36.67;99085.31;4291935;33;34652;-91
2023/06/14 11:31:43;;;;;;;;;;;;;;;25.91;35.63;99087.22;4291952;33;33575;-92
2023/06/14 11:34:11;;;;;;;;;;;;;;;25.64;36.95;99084.84;4292130;33;34245;-92
2023/06/14 11:36:39;;;;;;;;;;;;;;;25.82;37.08;99075.44;4304775;33;36063;-92
2023/06/14 11:39:07;;;;;;;;;;;;;;;25.37;37.34;99075.34;4304861;33;34786;-92
2023/06/14 11:41:39;;;;;;;;;;;;;;;25.99;38.69;99081.28;4291850;33;33585;-92
2023/06/14 11:44:07;;;;;;;;;;;;;;;26.93;36.01;99082.62;4291797;33;34639;-93
2023/06/14 11:46:35;;;;;;;;;;;;;;;26.39;36.57;99072.78;4291770;33;35425;-91
2023/06/14 11:49:04;;;;;;;;;;;;;;;26.52;33.54;99077.97;4291975;33;35525;-92
2023/06/14 11:51:32;;;;;;;;;;;;;;;26.15;35.79;99083.59;4279901;33;33231;-92
2023/06/14 11:54:02;;;;;;;;;;;;;;;25.06;37.43;99085.66;4291539;33;34572;-92
2023/06/14 11:56:31;;;;;;;;;;;;;;;25.09;38.79;99074.72;4291816;33;35305;-92
2023/06/14 11:59:00;;;;;;;;;;;;;;;24.90;39.56;99074.41;4304476;33;34350;-93
2023/06/14 12:01:29;;;;;;;;;;;;;;;24.77;42.23;99071.81;4279774;33;33206;-92
2023/06/14 12:03:58;;;;;;;;;;;;;;;24.85;39.22;99084.56;4291706;33;33998;-91
2023/06/14 12:06:28;;;;;;;;;;;;;;;24.69;41.08;99087.50;4291378;33;35184;-92
2023/06/14 12:08:57;;;;;;;;;;;;;;;25.10;38.47;99084.44;4291852;33;35369;-91
2023/06/14 12:11:28;;;;;;;;;;;;;;;25.06;40.12;99087.44;4291082;33;34217;-92
2023/06/14 12:13:56;;;;;;;;;;;;;;;24.48;39.30;99087.22;4291459;33;34558;-92
2023/06/14 12:16:30;;;;;;;;;;;;;;;25.48;41.12;99086.06;4291411;33;35326;-91
2023/06/14 12:19:00;;;;;;;;;;;;;;;25.94;38.35;99086.97;4291605;33;34487;-92
2023/06/14 12:21:28;;;;;;;;;;;;;;;25.92;36.93;99083.56;4291511;33;32846;-91
2023/06/14 12:23:56;;;;;;;;;;;;;;;25.62;38.47;99090.31;4303009;33;34214;-91
2023/06/14 12:26:24;;;;;;;;;;;;;;;25.95;41.77;99083.34;4304295;33;35334;-92
2023/06/14 12:28:52;;;;;;;;;;;;;;;26.25;40.11;99087.22;4291335;33;34637;-91
2023/06/14 12:31:20;;;;;;;;;;;;;;;26.27;40.39;99087.94;4304313;33;33656;-92
2023/06/14 12:33:51;;;;;;;;;;;;;;;25.60;40.85;99097.56;4304190;33;34325;-91
2023/06/14 12:36:19;;;;;;;;;;;;;;;24.86;42.57;99094.25;4304234;33;36144;-92
2023/06/14 12:38:47;;;;;;;;;;;;;;;24.75;42.22;99089.72;4291062;33;35138;-92
2023/06/14 12:41:15;;;;;;;;;;;;;;;24.62;42.36;99092.44;4291192;33;33974;-92
2023/06/14 12:43:43;;;;;;;;;;;;;;;25.17;42.29;99090.16;4291021;33;33842;-90
2023/06/14 12:46:11;;;;;;;;;;;;;;;24.49;43.13;99099.56;4291034;33;35373;-93
2023/06/14 12:48:39;;;;;;;;;;;;;;;24.28;44.29;99100.16;4303927;33;34724;-93
2023/06/14 12:51:07;;;;;;;;;;;;;;;23.97;45.91;99107.66;4279304;33;33439;-92
2023/06/14 12:53:35;;;;;;;;;;;;;;;24.36;45.24;99104.94;4290668;33;32541;-92
2023/06/14 12:56:03;;;;;;;;;;;;;;;24.54;45.30;99097.47;4290868;33;35696;-92
2023/06/14 12:58:31;;;;;;;;;;;;;;;24.38;44.59;99087.03;4290700;33;33209;-92